Time;durP1;ratioP1;P1;durP2;ratioP2;P2;SDS_P1;SDS_P2;PMS_P1;PMS_P2;Temp;Humidity;BMP_temperature;BMP_pressure;BME280_temperature;BME280_humidity;BME280_pressure;Samples;Min_cycle;Max_cycle;Signal;HPM_P1;HPM_P2
2024/04/14 00:02:22;369305.00;1.23;637.04;90986.00;0.30;158.01;;;;;17.60;1.00;;;;;;2175703;65;1330;-87
2024/04/14 00:04:52;366044.00;1.22;631.44;72292.00;0.24;125.72;;;;;17.60;1.00;;;;;;2175153;65;1084;-87
2024/04/14 00:07:18;399020.00;1.33;688.12;81092.00;0.27;140.92;;;;;17.70;1.00;;;;;;2175657;65;1291;-87
2024/04/14 00:09:47;200369.00;0.67;346.56;86708.00;0.29;150.62;;;;;17.80;1.00;;;;;;2175736;65;1654;-87
2024/04/14 00:12:13;337007.00;1.12;581.53;91408.00;0.30;158.74;;;;;17.80;1.00;;;;;;2175660;65;1901;-86
2024/04/14 00:14:42;487465.00;1.62;840.25;132628.00;0.44;229.86;;;;;17.70;1.00;;;;;;2175800;65;967;-87
2024/04/14 00:17:10;414996.00;1.38;715.59;94287.00;0.31;163.71;;;;;17.80;1.00;;;;;;2175479;65;1512;-87
2024/04/14 00:19:39;300696.00;1.00;519.12;56528.00;0.19;98.47;;;;;17.60;1.00;;;;;;2175581;65;930;-87
2024/04/14 00:22:05;335599.00;1.12;579.11;88745.00;0.30;154.14;;;;;17.30;1.00;;;;;;2175634;65;1591;-88
2024/04/14 00:24:33;383523.00;1.28;661.48;116131.00;0.39;201.41;;;;;17.40;1.00;;;;;;2175667;65;1686;-87
2024/04/14 00:26:59;421999.00;1.41;727.63;81760.00;0.27;142.08;;;;;17.40;1.00;;;;;;2175699;65;1562;-88
2024/04/14 00:29:25;288369.00;0.96;497.93;84058.00;0.28;146.05;;;;;17.40;1.00;;;;;;2175687;65;966;-87
2024/04/14 00:31:53;349483.00;1.16;602.97;73007.00;0.24;126.96;;;;;17.60;1.00;;;;;;2175694;65;986;-86
2024/04/14 00:34:22;290307.00;0.97;501.26;88932.00;0.30;154.46;;;;;17.30;1.00;;;;;;2175640;65;1561;-87
2024/04/14 00:36:50;278822.00;0.93;481.51;87196.00;0.29;151.47;;;;;17.30;1.00;;;;;;2175574;65;1205;-88
2024/04/14 00:39:16;299553.00;1.00;517.15;79859.00;0.27;138.79;;;;;17.20;1.00;;;;;;2175626;65;1549;-87
2024/04/14 00:41:45;318506.00;1.06;549.73;92559.00;0.31;160.73;;;;;17.20;1.00;;;;;;2175564;65;847;-87
2024/04/14 00:44:11;423623.00;1.41;730.42;132371.00;0.44;229.42;;;;;17.10;1.00;;;;;;2175573;65;1121;-86
2024/04/14 00:46:39;279709.00;0.93;483.04;81374.00;0.27;141.41;;;;;17.00;1.00;;;;;;2175939;65;991;-88
2024/04/14 00:49:05;275168.00;0.92;475.23;82880.00;0.28;144.01;;;;;17.00;1.00;;;;;;2176026;65;1168;-87
2024/04/14 00:51:37;233306.00;0.78;403.24;79702.00;0.27;138.52;;;;;17.00;1.00;;;;;;2176100;65;1639;-88
2024/04/14 00:54:03;396987.00;1.32;684.63;129054.00;0.43;223.70;;;;;16.90;1.00;;;;;;2176062;65;1905;-86
2024/04/14 00:56:32;363443.00;1.21;626.97;106501.00;0.36;184.79;;;;;17.00;1.00;;;;;;2176216;65;882;-88
2024/04/14 00:58:58;119235448.00;397.45;68669344.00;102346.00;0.34;177.62;;;;;17.00;1.00;;;;;;2176088;65;1675;-87
2024/04/14 01:01:27;266233.00;0.89;459.87;80173.00;0.27;139.34;;;;;17.20;1.00;;;;;;2176139;65;1264;-86
2024/04/14 01:03:53;321468.00;1.07;554.82;117482.00;0.39;203.74;;;;;17.10;1.00;;;;;;2176086;65;1018;-88
2024/04/14 01:06:22;407899.00;1.36;703.38;104949.00;0.35;182.11;;;;;17.30;1.00;;;;;;2176104;65;944;-87
2024/04/14 01:08:51;182294.00;0.61;315.44;81796.00;0.27;142.14;;;;;17.20;1.00;;;;;;2176170;65;1227;-89
2024/04/14 01:11:19;535846.00;1.79;923.56;119452.00;0.40;207.14;;;;;17.00;1.00;;;;;;2176103;65;972;-90
2024/04/14 01:13:46;198276.00;0.66;342.96;84556.00;0.28;146.91;;;;;16.80;1.00;;;;;;2175998;65;1891;-89
2024/04/14 01:16:14;377918.00;1.26;651.85;83259.00;0.28;144.67;;;;;16.80;1.00;;;;;;2176062;65;1582;-88
2024/04/14 01:18:40;393629.00;1.31;678.85;106945.00;0.36;185.56;;;;;16.70;1.00;;;;;;2175875;65;1539;-87
2024/04/14 01:21:09;228205.00;0.76;394.46;87776.00;0.29;152.47;;;;;16.60;1.00;;;;;;2176020;65;1022;-89
2024/04/14 01:23:35;290996.00;0.97;502.44;83491.00;0.28;145.07;;;;;16.60;1.00;;;;;;2175915;65;1596;-86
2024/04/14 01:26:06;362569.00;1.21;625.46;81922.00;0.27;142.36;;;;;16.70;1.00;;;;;;2176017;65;972;-87
2024/04/14 01:28:32;553053.00;1.84;953.22;73553.00;0.25;127.90;;;;;16.60;1.00;;;;;;2176436;65;1503;-86
2024/04/14 01:31:01;308023.00;1.03;531.71;88180.00;0.29;153.16;;;;;16.50;1.00;;;;;;2176119;65;1690;-86
2024/04/14 01:33:27;211124.00;0.70;365.07;73370.00;0.24;127.58;;;;;16.40;1.00;;;;;;2176336;65;1862;-87
2024/04/14 01:35:55;443022.00;1.48;763.78;86434.00;0.29;150.15;;;;;16.40;1.00;;;;;;2176309;65;1588;-86
2024/04/14 01:38:21;175795.00;0.59;304.25;82078.00;0.27;142.63;;;;;16.40;1.00;;;;;;2175902;65;1655;-87
2024/04/14 01:40:50;545981.00;1.82;941.03;79121.00;0.26;137.52;;;;;16.30;1.00;;;;;;2175790;65;1680;-87
2024/04/14 01:43:18;300995.00;1.00;519.63;86461.00;0.29;150.20;;;;;16.30;1.00;;;;;;2175860;65;1500;-88
2024/04/14 01:45:47;279159.00;0.93;482.09;86351.00;0.29;150.01;;;;;16.10;1.00;;;;;;2175967;65;1006;-88
2024/04/14 01:48:13;205078.00;0.68;354.66;87285.00;0.29;151.62;;;;;16.10;1.00;;;;;;2176236;65;1243;-87
2024/04/14 01:50:41;245151.00;0.82;423.61;88431.00;0.29;153.60;;;;;16.30;1.00;;;;;;2176029;65;1536;-88
2024/04/14 01:53:07;317569.00;1.06;548.12;118371.00;0.39;205.27;;;;;16.50;1.00;;;;;;2175986;65;1896;-86
2024/04/14 01:55:36;395072.00;1.32;681.33;82278.00;0.27;142.97;;;;;16.70;1.00;;;;;;2176010;65;959;-88
2024/04/14 01:58:01;307787.00;1.03;531.31;133612.00;0.45;231.56;;;;;16.70;1.00;;;;;;2175956;65;1280;-87
2024/04/14 02:00:33;214760.00;0.72;371.33;79049.00;0.26;137.39;;;;;16.40;1.00;;;;;;2175839;65;1025;-87
2024/04/14 02:03:00;317087.00;1.06;547.29;77909.00;0.26;135.43;;;;;16.40;1.00;;;;;;2175791;65;1084;-88
2024/04/14 02:05:28;240524.00;0.80;415.65;76820.00;0.26;133.54;;;;;16.50;1.00;;;;;;2175806;65;1588;-88
2024/04/14 02:07:54;274519.00;0.92;474.11;94657.00;0.32;164.35;;;;;16.50;1.00;;;;;;2181521;60;3655;-87
2024/04/14 02:10:23;351439.00;1.17;606.33;84565.00;0.28;146.92;;;;;16.40;1.00;;;;;;2181997;65;1025;-88
2024/04/14 02:12:49;250489.00;0.83;432.79;88492.00;0.29;153.70;;;;;16.40;1.00;;;;;;2181765;65;1892;-87
2024/04/14 02:15:17;264324.00;0.88;456.58;91590.00;0.31;159.05;;;;;16.50;1.00;;;;;;2181570;65;1679;-89
2024/04/14 02:17:46;311852.00;1.04;538.29;91917.00;0.31;159.62;;;;;16.40;1.00;;;;;;2181535;65;1406;-88
2024/04/14 02:20:14;404342.00;1.35;697.27;81297.00;0.27;141.28;;;;;16.30;1.00;;;;;;2181520;65;1553;-88
2024/04/14 02:22:40;359052.00;1.20;619.42;125623.00;0.42;217.78;;;;;16.10;1.00;;;;;;2181606;65;958;-87
2024/04/14 02:25:09;319003.00;1.06;550.58;91140.00;0.30;158.28;;;;;16.00;1.00;;;;;;2181693;65;1014;-87
2024/04/14 02:27:35;510852.00;1.70;880.51;79539.00;0.27;138.24;;;;;16.10;1.00;;;;;;2181985;65;1222;-89
2024/04/14 02:30:04;374339.00;1.25;645.69;85598.00;0.29;148.71;;;;;15.90;1.00;;;;;;2182153;65;967;-87
2024/04/14 02:35:06;448357.00;1.49;772.96;102238.00;0.34;177.43;;;;;15.60;1.00;;;;;;2169629;66;1410;-88
2024/04/14 02:37:32;446872.00;1.49;770.40;104174.00;0.35;180.78;;;;;15.80;1.00;;;;;;2170211;66;1250;-87
2024/04/14 02:40:00;25287.00;0.08;44.42;0.00;0.00;0.62;;;;;16.00;1.00;;;;;;2170241;66;1012;-88
2024/04/14 02:42:31;0.00;0.00;0.62;0.00;0.00;0.62;;;;;15.90;1.00;;;;;;2170170;66;1567;-88
2024/04/14 02:45:00;142950.00;0.48;247.66;42513.00;0.14;74.24;;;;;15.70;1.00;;;;;;2170090;66;1560;-88
2024/04/14 02:47:25;52357.00;0.17;91.26;0.00;0.00;0.62;;;;;15.50;1.00;;;;;;2170164;66;1255;-89
2024/04/14 02:49:54;90861.00;0.30;157.79;0.00;0.00;0.62;;;;;15.60;1.00;;;;;;2170245;66;914;-87
2024/04/14 02:52:22;72652.00;0.24;126.34;0.00;0.00;0.62;;;;;15.40;1.00;;;;;;2170087;66;1868;-90
2024/04/14 02:54:51;439726.00;1.47;758.11;81685.00;0.27;141.95;;;;;15.30;1.00;;;;;;2170199;66;994;-87
2024/04/14 02:57:17;28277.00;0.09;49.60;0.00;0.00;0.62;;;;;15.50;1.00;;;;;;2170149;66;1214;-89
2024/04/14 02:59:45;157806.00;0.53;273.26;9558.00;0.03;17.18;;;;;15.20;1.00;;;;;;2170107;66;946;-89
2024/04/14 03:02:11;123426.00;0.41;213.99;29856.00;0.10;52.33;;;;;15.20;1.00;;;;;;2170113;66;1555;-89
2024/04/14 03:04:40;127936.00;0.43;221.77;0.00;0.00;0.62;;;;;15.40;1.00;;;;;;2170119;66;1045;-87
2024/04/14 03:07:05;135634.00;0.45;235.04;0.00;0.00;0.62;;;;;15.50;1.00;;;;;;2169838;66;1517;-88
2024/04/14 03:09:37;80265.00;0.27;139.50;0.00;0.00;0.62;;;;;15.00;1.00;;;;;;2169744;66;1692;-89
2024/04/14 03:12:03;52205.00;0.17;91.00;0.00;0.00;0.62;;;;;15.10;1.00;;;;;;2170163;66;1109;-89
2024/04/14 03:14:32;230636.00;0.77;398.64;57138.00;0.19;99.53;;;;;15.30;1.00;;;;;;2170118;66;1863;-89
2024/04/14 03:16:58;34463.00;0.11;60.31;0.00;0.00;0.62;;;;;15.20;1.00;;;;;;2170092;66;1250;-89
2024/04/14 03:19:26;183546.00;0.61;317.60;37253.00;0.12;65.14;;;;;15.20;1.00;;;;;;2169966;66;1503;-88
2024/04/14 03:21:52;57778.00;0.19;100.64;0.00;0.00;0.62;;;;;15.10;1.00;;;;;;2170142;66;864;-89
2024/04/14 03:24:21;224567.00;0.75;388.20;0.00;0.00;0.62;;;;;15.30;1.00;;;;;;2169954;66;934;-88
2024/04/14 03:26:49;90780.00;0.30;157.65;23799.00;0.08;41.85;;;;;15.30;1.00;;;;;;2170173;66;1224;-88
2024/04/14 03:29:18;39403.00;0.13;68.86;0.00;0.00;0.62;;;;;15.40;1.00;;;;;;2170187;66;942;-88
2024/04/14 03:31:44;11527.00;0.04;20.59;0.00;0.00;0.62;;;;;15.40;1.00;;;;;;2170041;66;849;-88
2024/04/14 03:34:13;22340.00;0.07;39.32;0.00;0.00;0.62;;;;;15.20;1.00;;;;;;2177491;65;1891;-87
2024/04/14 03:36:42;16354.00;0.05;28.96;0.00;0.00;0.62;;;;;15.30;1.00;;;;;;2181485;65;1009;-89
2024/04/14 03:39:11;4285.00;0.01;8.05;0.00;0.00;0.62;;;;;15.30;1.00;;;;;;2181539;65;1192;-88
2024/04/14 03:41:39;81823.00;0.27;142.19;0.00;0.00;0.62;;;;;15.20;1.00;;;;;;2181418;65;1071;-88
2024/04/14 03:44:10;121382.00;0.40;210.47;0.00;0.00;0.62;;;;;15.00;1.00;;;;;;2181404;65;1586;-88
2024/04/14 03:46:39;0.00;0.00;0.62;0.00;0.00;0.62;;;;;14.70;1.00;;;;;;2181337;65;1616;-87
2024/04/14 03:49:07;87445.00;0.29;151.90;0.00;0.00;0.62;;;;;14.50;1.00;;;;;;2181334;65;2424;-88
2024/04/14 03:51:34;39573.00;0.13;69.15;0.00;0.00;0.62;;;;;14.80;1.00;;;;;;2181343;65;1461;-88
2024/04/14 03:54:02;152361.00;0.51;263.88;0.00;0.00;0.62;;;;;14.90;1.00;;;;;;2181460;65;1865;-88
2024/04/14 03:56:28;0.00;0.00;0.62;0.00;0.00;0.62;;;;;14.80;1.00;;;;;;2181469;65;914;-88
2024/04/14 03:58:57;161426.00;0.54;279.50;0.00;0.00;0.62;;;;;15.00;1.00;;;;;;2181281;65;1537;-87
2024/04/14 04:01:28;167139.00;0.56;289.34;70499.00;0.23;122.62;;;;;14.90;1.00;;;;;;2181354;65;1073;-86
2024/04/14 04:03:54;116621.00;0.39;202.25;0.00;0.00;0.62;;;;;14.50;1.00;;;;;;2181457;65;1507;-88
2024/04/14 04:06:22;120631.00;0.40;209.17;0.00;0.00;0.62;;;;;14.70;1.00;;;;;;2181435;65;1104;-87
2024/04/14 04:08:48;52532.00;0.18;91.56;0.00;0.00;0.62;;;;;14.90;1.00;;;;;;2181433;65;1212;-87
2024/04/14 04:11:17;77724.00;0.26;135.11;0.00;0.00;0.62;;;;;14.70;1.00;;;;;;2181487;65;1010;-87
2024/04/14 04:13:43;132790.00;0.44;230.14;37424.00;0.12;65.43;;;;;14.90;1.00;;;;;;2181232;65;1862;-88
2024/04/14 04:16:11;116566.00;0.39;202.16;0.00;0.00;0.62;;;;;15.00;1.00;;;;;;2181380;65;863;-86
2024/04/14 04:18:40;61845.00;0.21;107.67;0.00;0.00;0.62;;;;;15.00;1.00;;;;;;2181698;65;1226;-87
2024/04/14 04:21:09;55897.00;0.19;97.38;0.00;0.00;0.62;;;;;14.80;1.00;;;;;;2181460;65;1586;-88
2024/04/14 04:23:35;12415.00;0.04;22.13;0.00;0.00;0.62;;;;;14.80;1.00;;;;;;2181976;65;1240;-90
2024/04/14 04:26:04;131010.00;0.44;227.07;0.00;0.00;0.62;;;;;14.90;1.00;;;;;;2182065;65;1107;-88
2024/04/14 04:28:30;120017.00;0.40;208.11;0.00;0.00;0.62;;;;;15.00;1.00;;;;;;2181944;65;1219;-88
2024/04/14 04:30:59;71540.00;0.24;124.42;0.00;0.00;0.62;;;;;15.10;1.00;;;;;;2181977;65;1657;-88
2024/04/14 04:33:25;104477.00;0.35;181.30;0.00;0.00;0.62;;;;;15.10;1.00;;;;;;2181834;65;1907;-89
2024/04/14 04:35:58;183088.00;0.61;316.81;15615.00;0.05;27.68;;;;;15.00;1.00;;;;;;2181919;65;936;-88
2024/04/14 04:38:24;198894.00;0.66;344.02;0.00;0.00;0.62;;;;;14.80;1.00;;;;;;2181861;65;1344;-88
2024/04/14 04:40:54;35329.00;0.12;61.81;0.00;0.00;0.62;;;;;14.90;1.00;;;;;;2181616;65;998;-89
2024/04/14 04:43:22;23953.00;0.08;42.11;0.00;0.00;0.62;;;;;14.80;1.00;;;;;;2181887;65;1629;-89
2024/04/14 04:45:51;19902.00;0.07;35.10;0.00;0.00;0.62;;;;;14.90;1.00;;;;;;2181857;65;1735;-88
2024/04/14 04:48:17;0.00;0.00;0.62;0.00;0.00;0.62;;;;;14.90;1.00;;;;;;2181762;65;1548;-89
2024/04/14 04:50:47;116488512.00;388.30;64027848.00;88639.00;0.30;153.96;;;;;15.10;1.00;;;;;;2181833;65;1015;-88
2024/04/14 04:53:16;318160.00;1.06;549.14;62230.00;0.21;108.33;;;;;15.10;1.00;;;;;;2181722;65;1868;-88
2024/04/14 04:55:46;367169.00;1.22;633.37;74776.00;0.25;130.01;;;;;15.10;1.00;;;;;;2181917;65;919;-87
2024/04/14 04:58:14;246237.00;0.82;425.48;89866.00;0.30;156.08;;;;;15.10;1.00;;;;;;2181773;65;1583;-89
2024/04/14 05:00:43;166786.00;0.56;288.73;83431.00;0.28;144.96;;;;;15.00;1.00;;;;;;2181844;65;1515;-87
2024/04/14 05:03:09;430995.00;1.44;743.10;87256.00;0.29;151.57;;;;;14.30;1.00;;;;;;2181815;65;1579;-86
2024/04/14 05:05:37;303587.00;1.01;524.09;92217.00;0.31;160.14;;;;;14.30;1.00;;;;;;2181781;65;1637;-88
2024/04/14 05:08:04;313733.00;1.05;541.53;86516.00;0.29;150.29;;;;;14.50;1.00;;;;;;2181835;65;1234;-88
2024/04/14 05:10:35;357133.00;1.19;616.12;96964.00;0.32;168.33;;;;;14.10;1.00;;;;;;2181722;65;929;-89
2024/04/14 05:13:01;407400.00;1.36;702.53;144309.00;0.48;250.00;;;;;14.50;1.00;;;;;;2181814;65;1895;-86
2024/04/14 05:15:29;416254.00;1.39;717.75;141700.00;0.47;245.50;;;;;14.90;1.00;;;;;;2181823;65;1720;-87
2024/04/14 05:17:55;339466.00;1.13;585.76;83446.00;0.28;144.99;;;;;14.90;1.00;;;;;;2181767;65;1266;-88
2024/04/14 05:20:23;260299.00;0.87;449.66;85670.00;0.29;148.83;;;;;15.30;1.00;;;;;;2181827;65;1455;-87
2024/04/14 05:22:49;200776.00;0.67;347.26;87311.00;0.29;151.66;;;;;15.40;1.00;;;;;;2181681;65;1686;-89
2024/04/14 05:25:18;212238.00;0.71;366.99;64754.00;0.22;112.69;;;;;15.90;1.00;;;;;;2181671;65;1662;-88
2024/04/14 05:27:46;300555.00;1.00;518.87;146398.00;0.49;253.60;;;;;16.20;1.00;;;;;;2181749;65;1219;-86
2024/04/14 05:30:15;207607.00;0.69;359.02;85521.00;0.29;148.57;;;;;16.60;1.00;;;;;;2181698;65;1608;-86
2024/04/14 05:32:41;441019.00;1.47;760.34;79787.00;0.27;138.67;;;;;16.80;1.00;;;;;;2181504;65;1492;-86
2024/04/14 05:35:10;228773.00;0.76;395.44;92758.00;0.31;161.07;;;;;17.60;1.00;;;;;;2181753;65;1897;-86
2024/04/14 05:37:35;223797.00;0.75;386.88;82603.00;0.28;143.53;;;;;18.10;1.00;;;;;;2181734;65;1321;-87
2024/04/14 05:40:04;173070.00;0.58;299.55;84101.00;0.28;146.12;;;;;18.40;1.00;;;;;;2182327;65;1086;-87
2024/04/14 05:42:30;215970.00;0.72;373.41;76663.00;0.26;133.27;;;;;19.40;1.00;;;;;;2181718;65;1050;-86
2024/04/14 05:45:01;377452.00;1.26;651.05;103145.00;0.34;179.00;;;;;19.40;1.00;;;;;;2181742;65;1030;-88
2024/04/14 05:47:27;215053.00;0.72;371.83;87593.00;0.29;152.15;;;;;20.00;1.00;;;;;;2181757;65;1344;-88
2024/04/14 05:49:56;158401.00;0.53;274.28;66758.00;0.22;116.16;;;;;19.90;1.00;;;;;;2181644;65;1709;-86
2024/04/14 05:52:22;251968.00;0.84;435.34;94621.00;0.32;164.29;;;;;20.20;1.00;;;;;;2181636;65;1468;-88
2024/04/14 05:54:50;200776.00;0.67;347.26;88688.00;0.30;154.04;;;;;20.40;1.00;;;;;;2181579;65;2024;-87
2024/04/14 05:57:16;217150.00;0.72;375.44;71222.00;0.24;123.87;;;;;21.10;1.00;;;;;;2181767;65;1215;-88
2024/04/14 05:59:47;185184.00;0.62;320.42;80115.00;0.27;139.24;;;;;22.00;1.00;;;;;;2181715;65;932;-87
2024/04/14 06:02:15;172937.00;0.58;299.33;89870.00;0.30;156.08;;;;;22.40;1.00;;;;;;2181757;65;1012;-87
2024/04/14 06:04:44;365674.00;1.22;630.80;73743.00;0.25;128.23;;;;;23.20;1.00;;;;;;2181670;65;950;-87
2024/04/14 06:07:09;218062.00;0.73;377.01;81703.00;0.27;141.98;;;;;23.00;1.00;;;;;;2181694;65;1211;-89
2024/04/14 06:09:38;184827.00;0.62;319.80;77564.00;0.26;134.83;;;;;23.30;1.00;;;;;;2181727;65;1045;-88
2024/04/14 06:12:04;387265.00;1.29;667.91;161974.00;0.54;280.44;;;;;23.30;1.00;;;;;;2182276;65;1637;-88
2024/04/14 06:14:33;177043.00;0.59;306.40;80485.00;0.27;139.88;;;;;23.50;1.00;;;;;;2181739;65;1907;-88
2024/04/14 06:16:59;197723.00;0.66;342.00;75769.00;0.25;131.73;;;;;23.90;1.00;;;;;;2181572;65;1219;-88
2024/04/14 06:19:30;467315.00;1.56;805.57;120451.00;0.40;208.86;;;;;24.40;1.00;;;;;;2181704;65;2254;-87
2024/04/14 06:21:56;286436.00;0.95;494.60;75835.00;0.25;131.84;;;;;24.70;1.00;;;;;;2181557;65;903;-88
2024/04/14 06:24:24;208443.00;0.69;360.46;73944.00;0.25;128.58;;;;;25.10;1.00;;;;;;2181530;65;914;-87
2024/04/14 06:26:50;229662.00;0.77;396.97;80950.00;0.27;140.68;;;;;25.20;1.00;;;;;;2181474;65;1602;-89
2024/04/14 06:29:19;205855.00;0.69;356.00;93631.00;0.31;162.58;;;;;26.00;1.00;;;;;;2181514;65;930;-86
2024/04/14 06:34:20;274704.00;0.92;474.43;61316.00;0.20;106.75;;;;;25.70;1.00;;;;;;2169507;66;1886;-87
2024/04/14 06:36:49;290842.00;0.97;502.18;73527.00;0.25;127.85;;;;;25.30;1.00;;;;;;2170308;66;1015;-88
2024/04/14 06:39:18;349130.00;1.16;602.37;79166.00;0.26;137.60;;;;;25.30;1.00;;;;;;2164579;66;1011;-88
2024/04/14 06:41:43;340932.00;1.14;588.28;85282.00;0.28;148.16;;;;;25.20;1.00;;;;;;2164555;66;958;-87
2024/04/14 06:44:12;339925.00;1.13;586.54;80653.00;0.27;140.17;;;;;24.70;1.00;;;;;;2176978;60;3498;-86
2024/04/14 06:46:38;355576.00;1.19;613.45;76379.00;0.25;132.78;;;;;24.40;1.00;;;;;;2187894;60;3589;-85
2024/04/14 06:49:07;513314.00;1.71;884.75;90035.00;0.30;156.37;;;;;24.70;1.00;;;;;;2181623;65;1712;-87
2024/04/14 06:54:09;296290.00;0.99;511.54;90382.00;0.30;156.97;;;;;24.40;1.00;;;;;;2184364;60;3583;-89
2024/04/14 06:59:06;650111.00;2.17;1120.83;85708.00;0.29;148.90;;;;;25.30;1.00;;;;;;1866093;61;3393;-88
2024/04/14 07:04:08;695648.00;2.32;1199.69;75657.00;0.25;131.53;;;;;26.20;1.00;;;;;;2193530;60;3510;-88
2024/04/14 07:06:34;433582.00;1.45;747.55;80989.00;0.27;140.75;;;;;26.00;1.00;;;;;;2181541;65;926;-89
2024/04/14 07:09:02;800493.00;2.67;1381.98;118279.00;0.39;205.11;;;;;26.20;1.00;;;;;;2181667;65;1263;-87
2024/04/14 07:11:31;723309.00;2.41;1247.68;128997.00;0.43;223.60;;;;;26.10;1.00;;;;;;2181415;65;984;-88
2024/04/14 07:16:35;660365.00;2.20;1138.57;3586.00;0.01;6.84;;;;;26.50;1.00;;;;;;1638118;60;3250;-87
2024/04/14 07:19:01;685919.00;2.29;1182.83;0.00;0.00;0.62;;;;;26.40;1.00;;;;;;2181408;65;1219;-87
2024/04/14 07:21:29;546057.00;1.82;941.16;79502.00;0.27;138.18;;;;;26.80;1.00;;;;;;2181388;65;943;-88
2024/04/14 07:23:55;297387.00;0.99;513.43;11000.00;0.04;19.68;;;;;27.30;1.00;;;;;;2181442;65;1596;-87
2024/04/14 07:26:24;572827.00;1.91;987.32;88630.00;0.30;153.94;;;;;27.70;1.00;;;;;;2181431;65;1326;-90
2024/04/14 07:28:52;424786.00;1.42;732.42;0.00;0.00;0.62;;;;;28.90;1.00;;;;;;2181696;65;1204;-87
2024/04/14 07:31:21;608715.00;2.03;1049.27;0.00;0.00;0.62;;;;;29.80;1.00;;;;;;2181315;65;1576;-89
2024/04/14 07:33:46;758825.00;2.53;1309.41;96901.00;0.32;168.22;;;;;30.00;1.00;;;;;;2181343;65;1896;-88
2024/04/14 07:36:15;621632.00;2.07;1071.59;70049.00;0.23;121.85;;;;;30.10;1.00;;;;;;2181438;65;916;-88
2024/04/14 07:38:41;884048.00;2.95;1528.12;177561.00;0.59;307.29;;;;;30.10;1.00;;;;;;2181685;65;1589;-89
2024/04/14 07:41:07;550489.00;1.83;948.80;71578.00;0.24;124.49;;;;;30.10;1.00;;;;;;2181532;65;1570;-88
2024/04/14 07:43:35;774677.00;2.58;1337.00;121493.00;0.40;210.66;;;;;30.50;1.00;;;;;;2181467;65;929;-89
2024/04/14 07:46:05;693730.00;2.31;1196.37;118187.00;0.39;204.95;;;;;30.90;1.00;;;;;;2181412;65;1023;-90
2024/04/14 07:48:33;774468.00;2.58;1336.63;78117.00;0.26;135.78;;;;;31.30;1.00;;;;;;2181706;65;1270;-88
2024/04/14 07:51:00;515075.00;1.72;887.78;72672.00;0.24;126.38;;;;;31.60;1.00;;;;;;2181406;65;986;-89
2024/04/14 07:53:28;780495.00;2.60;1347.13;146700.00;0.49;254.12;;;;;31.70;1.00;;;;;;2181342;65;1895;-88
2024/04/14 07:55:54;579692.00;1.93;999.17;96109.00;0.32;166.86;;;;;31.80;1.00;;;;;;2181258;65;1052;-90
2024/04/14 07:58:23;716818.00;2.39;1236.42;67990.00;0.23;118.29;;;;;31.90;1.00;;;;;;2181325;65;1220;-90
2024/04/14 08:00:49;875327.00;2.92;1512.83;155718.00;0.52;269.66;;;;;32.10;1.00;;;;;;2181284;65;929;-89
2024/04/14 08:03:20;741335.00;2.47;1278.99;78006.00;0.26;135.59;;;;;31.20;1.00;;;;;;2181362;65;1046;-88
2024/04/14 08:05:46;904796.00;3.02;1564.54;88878.00;0.30;154.37;;;;;30.80;1.00;;;;;;2181503;65;977;-88
2024/04/14 08:08:15;563048.00;1.88;970.46;94304.00;0.31;163.74;;;;;31.10;1.00;;;;;;2181456;65;1232;-89
2024/04/14 08:10:41;627985.00;2.09;1082.57;74469.00;0.25;129.48;;;;;30.70;1.00;;;;;;2181713;65;1064;-88
2024/04/14 08:13:09;675381.00;2.25;1164.57;113753.00;0.38;197.31;;;;;30.40;1.00;;;;;;2181462;65;1026;-89
2024/04/14 08:15:35;712233.00;2.37;1228.46;70943.00;0.24;123.39;;;;;29.40;1.00;;;;;;2181386;65;1893;-89
2024/04/14 08:18:04;913507.00;3.05;1579.86;106618.00;0.36;184.99;;;;;29.30;1.00;;;;;;2181725;65;1366;-89
2024/04/14 08:20:32;568116.00;1.89;979.20;98527.00;0.33;171.03;;;;;29.70;1.00;;;;;;2181412;65;1609;-89
2024/04/14 08:23:01;955817.00;3.19;1654.37;79163.00;0.26;137.59;;;;;28.90;1.00;;;;;;2181521;65;1067;-89
2024/04/14 08:25:27;591522.00;1.97;1019.58;96315.00;0.32;167.21;;;;;28.80;1.00;;;;;;2181287;65;1646;-90
2024/04/14 08:27:55;652138.00;2.17;1124.34;103112.00;0.34;178.94;;;;;28.60;1.00;;;;;;2181345;65;1577;-89
2024/04/14 08:30:21;677256.00;2.26;1167.82;153146.00;0.51;265.23;;;;;28.50;1.00;;;;;;2181453;65;1859;-89
2024/04/14 08:32:50;0.00;0.00;0.62;0.00;0.00;0.62;;;;;28.70;1.00;;;;;;2181495;65;1769;-88
2024/04/14 08:35:16;0.00;0.00;0.62;0.00;0.00;0.62;;;;;29.30;1.00;;;;;;2181464;65;1866;-89
2024/04/14 08:37:47;5557.00;0.02;10.25;0.00;0.00;0.62;;;;;29.50;1.00;;;;;;2181424;65;1290;-89
2024/04/14 08:40:13;53791.00;0.18;93.74;0.00;0.00;0.62;;;;;29.50;1.00;;;;;;2181445;65;1001;-89
2024/04/14 08:42:44;50087.00;0.17;87.34;0.00;0.00;0.62;;;;;29.70;1.00;;;;;;2181654;65;1017;-88
2024/04/14 08:45:11;164733.00;0.55;285.19;0.00;0.00;0.62;;;;;29.10;1.00;;;;;;2181402;65;950;-88
2024/04/14 08:50:15;55305.00;0.18;96.36;0.00;0.00;0.62;;;;;28.50;1.00;;;;;;2174936;65;1381;-90
2024/04/14 08:52:45;34967.00;0.12;61.18;0.00;0.00;0.62;;;;;28.50;1.00;;;;;;2175532;65;1025;-87
2024/04/14 08:55:14;0.00;0.00;0.62;0.00;0.00;0.62;;;;;28.70;1.00;;;;;;2175490;65;1897;-89
2024/04/14 08:57:40;0.00;0.00;0.62;0.00;0.00;0.62;;;;;29.10;1.00;;;;;;2175361;65;1583;-89
2024/04/14 09:00:15;126463.00;0.42;219.23;0.00;0.00;0.62;;;;;29.20;1.00;;;;;;2175371;65;1593;-88
2024/04/14 09:02:41;34675.00;0.12;60.67;0.00;0.00;0.62;;;;;28.80;1.00;;;;;;2175537;65;1615;-87
2024/04/14 09:05:11;64530.00;0.22;112.31;0.00;0.00;0.62;;;;;28.90;1.00;;;;;;2175744;65;1393;-87
2024/04/14 09:07:37;0.00;0.00;0.62;0.00;0.00;0.62;;;;;29.10;1.00;;;;;;2175881;65;1207;-88
2024/04/14 09:10:09;0.00;0.00;0.62;0.00;0.00;0.62;;;;;29.10;1.00;;;;;;2176256;65;1018;-89
2024/04/14 09:15:11;96222.00;0.32;167.05;0.00;0.00;0.62;;;;;28.60;1.00;;;;;;2181720;66;1892;-87
2024/04/14 09:20:12;129183.00;0.43;223.92;0.00;0.00;0.62;;;;;28.90;1.00;;;;;;2169655;66;1411;-89
2024/04/14 09:22:39;233951.00;0.78;404.35;75265.00;0.25;130.86;;;;;28.70;1.00;;;;;;2170781;66;1070;-89
2024/04/14 09:27:40;344403.00;1.15;594.24;75076.00;0.25;130.53;;;;;28.90;1.00;;;;;;2181032;65;1341;-88
2024/04/14 09:30:16;179377.00;0.60;310.42;72882.00;0.24;126.74;;;;;29.20;1.00;;;;;;2181892;65;1500;-90
2024/04/14 09:32:45;205286.00;0.68;355.02;75348.00;0.25;131.00;;;;;29.20;1.00;;;;;;2181925;65;1005;-88
2024/04/14 09:35:12;174358.00;0.58;301.77;80992.00;0.27;140.75;;;;;29.00;1.00;;;;;;2181743;65;1891;-88
2024/04/14 09:37:43;368650.00;1.23;635.92;137727.00;0.46;238.65;;;;;28.90;1.00;;;;;;2182065;65;1736;-87
2024/04/14 09:40:12;285992.00;0.95;493.84;74783.00;0.25;130.02;;;;;28.60;1.00;;;;;;2181896;65;1234;-89
2024/04/14 09:42:47;400254.00;1.33;690.24;79232.00;0.26;137.71;;;;;28.20;1.00;;;;;;2181923;65;1017;-89
2024/04/14 09:45:15;278966.00;0.93;481.76;68904.00;0.23;119.87;;;;;28.00;1.00;;;;;;2181891;65;1650;-88
2024/04/14 09:47:46;245638.00;0.82;424.45;76287.00;0.25;132.62;;;;;28.40;1.00;;;;;;2181774;65;1693;-86
2024/04/14 09:50:12;353334.00;1.18;609.59;74835.00;0.25;130.11;;;;;28.40;1.00;;;;;;2181966;65;1541;-88
2024/04/14 09:52:45;376185.00;1.25;648.87;74990.00;0.25;130.38;;;;;28.40;1.00;;;;;;2181949;65;943;-88
2024/04/14 09:55:11;425131.00;1.42;733.01;139075.00;0.46;240.98;;;;;28.40;1.00;;;;;;2181926;65;1861;-88
2024/04/14 09:57:40;244011.00;0.81;421.65;75352.00;0.25;131.01;;;;;28.90;1.00;;;;;;2181853;65;1291;-89
2024/04/14 10:00:10;415966.00;1.39;717.25;103449.00;0.34;179.52;;;;;29.00;1.00;;;;;;2181922;65;1079;-89
2024/04/14 10:02:44;467461.00;1.56;805.82;116028.00;0.39;201.23;;;;;28.80;1.00;;;;;;2181731;65;2234;-87
2024/04/14 10:05:11;603739.00;2.01;1040.68;77806.00;0.26;135.25;;;;;28.50;1.00;;;;;;2181789;65;928;-88